Delta Ios — SVAK9 — position and weather

sailwx.info

Track history (hours):
 
Tides and Currents Weather Stations Pressure Air Temp Water Temp Dewpoint Dewpoint Depression Visibility Wind Speed Wind Dir Waves Ship Positions

Delta Ios

Last reported at 2016-Nov-24 17:12 UTC. Time now 2016-Dec-08 22:06 UTC.
Position N 36°11' E 014°44'.
Warning: this ship's position is 14 days out of date.

Length 276 m; draft 17.1 m.

Type: Tanker. MMSI: 240821000.

Date/timePositionNaut miles runAvg speedWind from/ knotsBaromVisibWave heightAir tempDewpointWater temp
2016-Nov-24 17:12N 36°11' E 014°44'812.3
2016-Nov-24 16:33N 36°12' E 014°34'1110.9
2016-Nov-24 15:33N 36°14' E 014°21'0 0.4
2016-Nov-24 14:33N 36°14' E 014°20'1 0.8
2016-Nov-24 13:33N 36°14' E 014°21'1 0.8
2016-Nov-24 12:33N 36°14' E 014°22'1 0.7
2016-Nov-24 11:32N 36°13' E 014°23'1 0.7
2016-Nov-24 10:33N 36°13' E 014°24'1 0.7
2016-Nov-24 09:33N 36°13' E 014°25'1 0.6
2016-Nov-24 08:33N 36°13' E 014°25'1 0.7
2016-Nov-24 07:33N 36°12' E 014°26'1 0.8
2016-Nov-24 06:33N 36°12' E 014°27'1 0.8
2016-Nov-24 05:33N 36°11' E 014°28'1 0.9
2016-Nov-24 04:33N 36°11' E 014°29'1 0.9
2016-Nov-24 03:33N 36°11' E 014°30'1 0.9
2016-Nov-24 02:33N 36°10' E 014°31'1 1.0
2016-Nov-24 01:33N 36°10' E 014°32'1 1.0
2016-Nov-24 00:33N 36°09' E 014°33'1 0.9
2016-Nov-23 23:33N 36°09' E 014°34'1 0.9
2016-Nov-23 22:33N 36°09' E 014°35'1 0.9
2016-Nov-23 21:33N 36°08' E 014°36'1 0.8
2016-Nov-23 20:33N 36°08' E 014°37'1 0.8
2016-Nov-23 19:33N 36°08' E 014°38'1 0.7
2016-Nov-23 18:33N 36°08' E 014°39'1 0.7
2016-Nov-23 17:33N 36°08' E 014°40'1 0.6
2016-Nov-23 16:33N 36°07' E 014°40'2 2.1
2016-Nov-23 15:33N 36°07' E 014°43'4 4.3
2016-Nov-23 14:32N 36°05' E 014°48'5 1.5
2016-Nov-23 11:05N 36°05' E 014°41'1 1.0
2016-Nov-23 10:31N 36°05' E 014°40'1 0.8
2016-Nov-23 09:33N 36°05' E 014°41'1 0.7
2016-Nov-23 08:13N 36°05' E 014°42'1 0.7
2016-Nov-23 06:33N 36°04' E 014°44'3 0.8
2016-Nov-23 03:09N 36°04' E 014°47'0 0.8
2016-Nov-23 02:33N 36°04' E 014°47'3 1.3
2016-Nov-23 00:32N 36°03' E 014°45'1 0.4
2016-Nov-22 22:31N 36°03' E 014°44'2 0.5
2016-Nov-22 17:32N 36°04' E 014°46'0 0.4
2016-Nov-22 16:31N 36°05' E 014°47'0 0.5
2016-Nov-22 15:31N 36°05' E 014°47'1 0.8
2016-Nov-22 14:33N 36°05' E 014°48'3 3.0
2016-Nov-22 13:29N 36°06' E 014°44'5 1.8
2016-Nov-22 10:33N 36°08' E 014°38'1 0.9
2016-Nov-22 09:33N 36°08' E 014°39'3 3.0
2016-Nov-22 08:33N 36°06' E 014°42'4 3.8
2016-Nov-22 07:33N 36°04' E 014°46'3 1.6
2016-Nov-22 05:33N 36°01' E 014°44'1 0.8
2016-Nov-22 04:33N 36°02' E 014°45'1 0.8
2016-Nov-22 03:33N 36°02' E 014°46'1 0.6
2016-Nov-22 02:17N 36°03' E 014°46'19 7.0
2016-Nov-21 23:33N 36°15' E 014°28'2412.0
2016-Nov-21 21:33N 36°13' E 013°58'2 0.5
2016-Nov-21 17:33N 36°15' E 013°58'1 0.4
2016-Nov-21 14:33N 36°15' E 013°60'1 0.7
2016-Nov-21 13:33N 36°15' E 014°01'1 0.8
2016-Nov-21 12:33N 36°14' E 014°02'1 0.8
2016-Nov-21 11:33N 36°14' E 014°02'1 0.8
2016-Nov-21 10:33N 36°14' E 014°03'7 3.4
2016-Nov-21 08:33N 36°15' E 014°12'1 1.3
2016-Nov-21 07:33N 36°15' E 014°13'0 0.1
2016-Nov-21 05:33N 36°15' E 014°13'1 1.0
2016-Nov-21 04:33N 36°16' E 014°14'1 0.7
2016-Nov-21 02:33N 36°17' E 014°15'1 0.6
2016-Nov-21 00:33N 36°17' E 014°17'1 0.6
2016-Nov-20 22:33N 36°17' E 014°18'1 0.7
2016-Nov-20 21:33N 36°17' E 014°19'8 2.0
2016-Nov-20 17:33N 36°12' E 014°27'2 2.1
2016-Nov-20 16:33N 36°12' E 014°30'2 1.1
2016-Nov-20 14:33N 36°11' E 014°33'2 1.6
2016-Nov-20 13:33N 36°12' E 014°31'1 1.4
2016-Nov-20 12:33N 36°13' E 014°30'11 3.7
2016-Nov-20 09:33N 36°06' E 014°40'1 0.7
2016-Nov-20 08:33N 36°05' E 014°40'1 0.9
2016-Nov-20 07:33N 36°04' E 014°41'1 1.5
2016-Nov-20 06:32N 36°03' E 014°42'10 9.7
2016-Nov-20 05:33N 36°08' E 014°32'1313.1
2016-Nov-20 04:33N 36°15' E 014°18'7 6.5
2016-Nov-20 03:33N 36°19' E 014°12'1 0.7
2016-Nov-20 01:33N 36°20' E 014°13'1 0.6
2016-Nov-19 23:33N 36°19' E 014°15'1 1.1
2016-Nov-19 22:33N 36°19' E 014°16'3 1.5
2016-Nov-19 20:33N 36°18' E 014°20'1 1.5
2016-Nov-19 19:33N 36°18' E 014°21'6 2.8
2016-Nov-19 17:33N 36°13' E 014°25'2 2.2
2016-Nov-19 16:33N 36°11' E 014°27'2 0.8
2016-Nov-19 14:33N 36°12' E 014°26'1 0.5
2016-Nov-19 11:33N 36°12' E 014°27'3 1.3
2016-Nov-19 09:33N 36°11' E 014°30'6 3.2
2016-Nov-19 07:33N 36°09' E 014°38'9 4.4
2016-Nov-19 05:27N 36°04' E 014°47'3 3.4
2016-Nov-19 04:33N 36°00' E 014°47'6 0.4
2016-Nov-18 14:07N 36°02' E 014°54'12 4.7
2016-Nov-18 11:33N 36°08' E 014°41'6 3.0
2016-Nov-18 09:33N 36°11' E 014°35'2 1.0
2016-Nov-18 07:33N 36°10' E 014°37'4 1.8
2016-Nov-18 05:33N 36°10' E 014°41'4 4.3
2016-Nov-18 04:34N 36°13' E 014°45'4 1.3
2016-Nov-18 01:24N 36°09' E 014°47'1 1.0
2016-Nov-18 00:16N 36°08' E 014°48'1 0.9
2016-Nov-17 23:33N 36°07' E 014°48'1 0.8
2016-Nov-17 22:27N 36°07' E 014°49'1 0.5
2016-Nov-17 19:23N 36°06' E 014°50'2 2.8
2016-Nov-17 18:34N 36°06' E 014°47'11 2.8
2016-Nov-17 14:33N 36°12' E 014°35'2 1.6
2016-Nov-17 13:33N 36°12' E 014°37'1 0.9
2016-Nov-17 12:33N 36°13' E 014°36'4 3.5
2016-Nov-17 11:33N 36°14' E 014°32'10 3.4
2016-Nov-17 08:33N 36°07' E 014°41'14 7.0
2016-Nov-17 06:33N 36°01' E 014°57'1 0.4
2016-Nov-17 02:33N 36°03' E 014°58'3 0.8
2016-Nov-16 23:18N 36°00' E 014°58'4 4.9
2016-Nov-16 22:33N 35°57' E 014°56'1 0.5
2016-Nov-16 20:27N 35°58' E 014°57'2 1.6
2016-Nov-16 19:12N 35°60' E 014°58'1811.2
2016-Nov-16 17:33N 36°09' E 014°39'1312.7
2016-Nov-16 16:33N 36°17' E 014°26'4610.9
2016-Nov-16 12:20N 36°39' E 013°35'  
Track history (hours):
 
Tides and Currents Weather Stations Pressure Air Temp Water Temp Dewpoint Dewpoint Depression Visibility Wind Speed Wind Dir Waves Ship Positions

Delta Ios

Last reported at 2016-Nov-24 17:12 UTC. Time now 2016-Dec-08 22:06 UTC.
Position N 36°11' E 014°44'.
Warning: this ship's position is 14 days out of date.

Length 276 m; draft 17.1 m.

Type: Tanker. MMSI: 240821000.

Date/timePositionNaut miles runAvg speedWind from/ knotsBaromVisibWave heightAir tempDewpointWater temp
2016-Nov-24 17:12N 36°11' E 014°44'812.3
2016-Nov-24 16:33N 36°12' E 014°34'1110.9
2016-Nov-24 15:33N 36°14' E 014°21'0 0.4
2016-Nov-24 14:33N 36°14' E 014°20'1 0.8
2016-Nov-24 13:33N 36°14' E 014°21'1 0.8
2016-Nov-24 12:33N 36°14' E 014°22'1 0.7
2016-Nov-24 11:32N 36°13' E 014°23'1 0.7
2016-Nov-24 10:33N 36°13' E 014°24'1 0.7
2016-Nov-24 09:33N 36°13' E 014°25'1 0.6
2016-Nov-24 08:33N 36°13' E 014°25'1 0.7
2016-Nov-24 07:33N 36°12' E 014°26'1 0.8
2016-Nov-24 06:33N 36°12' E 014°27'1 0.8
2016-Nov-24 05:33N 36°11' E 014°28'1 0.9
2016-Nov-24 04:33N 36°11' E 014°29'1 0.9
2016-Nov-24 03:33N 36°11' E 014°30'1 0.9
2016-Nov-24 02:33N 36°10' E 014°31'1 1.0
2016-Nov-24 01:33N 36°10' E 014°32'1 1.0
2016-Nov-24 00:33N 36°09' E 014°33'1 0.9
2016-Nov-23 23:33N 36°09' E 014°34'1 0.9
2016-Nov-23 22:33N 36°09' E 014°35'1 0.9
2016-Nov-23 21:33N 36°08' E 014°36'1 0.8
2016-Nov-23 20:33N 36°08' E 014°37'1 0.8
2016-Nov-23 19:33N 36°08' E 014°38'1 0.7
2016-Nov-23 18:33N 36°08' E 014°39'1 0.7
2016-Nov-23 17:33N 36°08' E 014°40'1 0.6
2016-Nov-23 16:33N 36°07' E 014°40'2 2.1
2016-Nov-23 15:33N 36°07' E 014°43'4 4.3
2016-Nov-23 14:32N 36°05' E 014°48'5 1.5
2016-Nov-23 11:05N 36°05' E 014°41'1 1.0
2016-Nov-23 10:31N 36°05' E 014°40'1 0.8
2016-Nov-23 09:33N 36°05' E 014°41'1 0.7
2016-Nov-23 08:13N 36°05' E 014°42'1 0.7
2016-Nov-23 06:33N 36°04' E 014°44'3 0.8
2016-Nov-23 03:09N 36°04' E 014°47'0 0.8
2016-Nov-23 02:33N 36°04' E 014°47'3 1.3
2016-Nov-23 00:32N 36°03' E 014°45'1 0.4
2016-Nov-22 22:31N 36°03' E 014°44'2 0.5
2016-Nov-22 17:32N 36°04' E 014°46'0 0.4
2016-Nov-22 16:31N 36°05' E 014°47'0 0.5
2016-Nov-22 15:31N 36°05' E 014°47'1 0.8
2016-Nov-22 14:33N 36°05' E 014°48'3 3.0
2016-Nov-22 13:29N 36°06' E 014°44'5 1.8
2016-Nov-22 10:33N 36°08' E 014°38'1 0.9
2016-Nov-22 09:33N 36°08' E 014°39'3 3.0
2016-Nov-22 08:33N 36°06' E 014°42'4 3.8
2016-Nov-22 07:33N 36°04' E 014°46'3 1.6
2016-Nov-22 05:33N 36°01' E 014°44'1 0.8
2016-Nov-22 04:33N 36°02' E 014°45'1 0.8
2016-Nov-22 03:33N 36°02' E 014°46'1 0.6
2016-Nov-22 02:17N 36°03' E 014°46'19 7.0
2016-Nov-21 23:33N 36°15' E 014°28'2412.0
2016-Nov-21 21:33N 36°13' E 013°58'2 0.5
2016-Nov-21 17:33N 36°15' E 013°58'1 0.4
2016-Nov-21 14:33N 36°15' E 013°60'1 0.7
2016-Nov-21 13:33N 36°15' E 014°01'1 0.8
2016-Nov-21 12:33N 36°14' E 014°02'1 0.8
2016-Nov-21 11:33N 36°14' E 014°02'1 0.8
2016-Nov-21 10:33N 36°14' E 014°03'7 3.4
2016-Nov-21 08:33N 36°15' E 014°12'1 1.3
2016-Nov-21 07:33N 36°15' E 014°13'0 0.1
2016-Nov-21 05:33N 36°15' E 014°13'1 1.0
2016-Nov-21 04:33N 36°16' E 014°14'1 0.7
2016-Nov-21 02:33N 36°17' E 014°15'1 0.6
2016-Nov-21 00:33N 36°17' E 014°17'1 0.6
2016-Nov-20 22:33N 36°17' E 014°18'1 0.7
2016-Nov-20 21:33N 36°17' E 014°19'8 2.0
2016-Nov-20 17:33N 36°12' E 014°27'2 2.1
2016-Nov-20 16:33N 36°12' E 014°30'2 1.1
2016-Nov-20 14:33N 36°11' E 014°33'2 1.6
2016-Nov-20 13:33N 36°12' E 014°31'1 1.4
2016-Nov-20 12:33N 36°13' E 014°30'11 3.7
2016-Nov-20 09:33N 36°06' E 014°40'1 0.7
2016-Nov-20 08:33N 36°05' E 014°40'1 0.9
2016-Nov-20 07:33N 36°04' E 014°41'1 1.5
2016-Nov-20 06:32N 36°03' E 014°42'10 9.7
2016-Nov-20 05:33N 36°08' E 014°32'1313.1
2016-Nov-20 04:33N 36°15' E 014°18'7 6.5
2016-Nov-20 03:33N 36°19' E 014°12'1 0.7
2016-Nov-20 01:33N 36°20' E 014°13'1 0.6
2016-Nov-19 23:33N 36°19' E 014°15'1 1.1
2016-Nov-19 22:33N 36°19' E 014°16'3 1.5
2016-Nov-19 20:33N 36°18' E 014°20'1 1.5
2016-Nov-19 19:33N 36°18' E 014°21'6 2.8
2016-Nov-19 17:33N 36°13' E 014°25'2 2.2
2016-Nov-19 16:33N 36°11' E 014°27'2 0.8
2016-Nov-19 14:33N 36°12' E 014°26'1 0.5
2016-Nov-19 11:33N 36°12' E 014°27'3 1.3
2016-Nov-19 09:33N 36°11' E 014°30'6 3.2
2016-Nov-19 07:33N 36°09' E 014°38'9 4.4
2016-Nov-19 05:27N 36°04' E 014°47'3 3.4
2016-Nov-19 04:33N 36°00' E 014°47'6 0.4
2016-Nov-18 14:07N 36°02' E 014°54'12 4.7
2016-Nov-18 11:33N 36°08' E 014°41'6 3.0
2016-Nov-18 09:33N 36°11' E 014°35'2 1.0
2016-Nov-18 07:33N 36°10' E 014°37'4 1.8
2016-Nov-18 05:33N 36°10' E 014°41'4 4.3
2016-Nov-18 04:34N 36°13' E 014°45'4 1.3
2016-Nov-18 01:24N 36°09' E 014°47'1 1.0
2016-Nov-18 00:16N 36°08' E 014°48'1 0.9
2016-Nov-17 23:33N 36°07' E 014°48'1 0.8
2016-Nov-17 22:27N 36°07' E 014°49'1 0.5
2016-Nov-17 19:23N 36°06' E 014°50'2 2.8
2016-Nov-17 18:34N 36°06' E 014°47'11 2.8
2016-Nov-17 14:33N 36°12' E 014°35'2 1.6
2016-Nov-17 13:33N 36°12' E 014°37'1 0.9
2016-Nov-17 12:33N 36°13' E 014°36'4 3.5
2016-Nov-17 11:33N 36°14' E 014°32'10 3.4
2016-Nov-17 08:33N 36°07' E 014°41'14 7.0
2016-Nov-17 06:33N 36°01' E 014°57'1 0.4
2016-Nov-17 02:33N 36°03' E 014°58'3 0.8
2016-Nov-16 23:18N 36°00' E 014°58'4 4.9
2016-Nov-16 22:33N 35°57' E 014°56'1 0.5
2016-Nov-16 20:27N 35°58' E 014°57'2 1.6
2016-Nov-16 19:12N 35°60' E 014°58'1811.2
2016-Nov-16 17:33N 36°09' E 014°39'1312.7
2016-Nov-16 16:33N 36°17' E 014°26'4610.9
2016-Nov-16 12:20N 36°39' E 013°35'  

Dump ship's entire track history